Sedov — UELO — position and weather

sailwx.info

Track history (hours):
 
Tides and Currents Weather Stations Pressure Air Temp Water Temp Dewpoint Dewpoint Depression Visibility Wind Speed Wind Dir Waves Ship Positions

Sedov (Russia)

Last reported at 2014-Oct-31 19:31 UTC. Time now 2014-Oct-31 20:03 UTC.
Position N 59°56' E 030°17'.

Length 118 m; draft 6.5 m.

Type: Sailing vessel. MMSI: 273510000.

Date/timePositionNaut miles runAvg speedWind from/ knotsBaromVisibWave heightAir tempDewpointWater temp
2014-Oct-31 19:31N 59°56' E 030°17'0 0.0
2014-Oct-31 18:31N 59°56' E 030°17'0 0.0
2014-Oct-31 17:31N 59°56' E 030°17'0 0.0
2014-Oct-31 16:31N 59°56' E 030°17'0 0.0
2014-Oct-31 15:31N 59°56' E 030°17'0 0.0
2014-Oct-31 14:31N 59°56' E 030°17'0 0.0
2014-Oct-31 13:31N 59°56' E 030°17'0 0.0
2014-Oct-31 12:31N 59°56' E 030°17'0 0.0
2014-Oct-31 11:31N 59°56' E 030°17'0 0.0
2014-Oct-31 10:31N 59°56' E 030°17'0 0.0
2014-Oct-31 09:31N 59°56' E 030°17'0 0.0
2014-Oct-31 08:31N 59°56' E 030°17'0 0.3
2014-Oct-31 07:33N 59°56' E 030°16'  
2014-Oct-28 10:33N 59°59' E 026°47'10 9.9
2014-Oct-28 09:33N 59°58' E 026°27'73 8.6
2014-Oct-28 01:10N 59°40' E 024°07'5 7.2
2014-Oct-28 00:32N 59°39' E 023°58'7 7.1
2014-Oct-27 23:33N 59°37' E 023°45'7 7.2
2014-Oct-27 22:33N 59°35' E 023°32'7 6.6
2014-Oct-27 21:29N 59°33' E 023°19'  
2014-Oct-25 13:23N 54°51' E 015°36'10 2.6
2014-Oct-25 09:33N 54°47' E 015°19'3 2.7
2014-Oct-25 08:32N 54°46' E 015°15'3 2.6
2014-Oct-25 07:33N 54°45' E 015°11'5 4.5
2014-Oct-25 06:33N 54°44' E 015°03'10 9.0
2014-Oct-25 05:29N 54°40' E 014°48'22 7.3
2014-Oct-25 02:26N 54°38' E 014°10'6 6.9
2014-Oct-25 01:31N 54°40' E 013°59'54 7.5
2014-Oct-24 18:21N 54°33' E 012°27'8 9.6
2014-Oct-24 17:32N 54°27' E 012°19'10 9.8
2014-Oct-24 16:32N 54°20' E 012°06'9 8.6
2014-Oct-24 15:33N 54°12' E 012°05'2 1.1
2014-Oct-24 14:07N 54°10' E 012°06'0 0.0
2014-Oct-24 13:28N 54°10' E 012°06'0 0.0
2014-Oct-24 12:31N 54°10' E 012°06'0 0.0
2014-Oct-24 10:23N 54°10' E 012°06'0 0.0
2014-Oct-24 08:32N 54°10' E 012°06'0 0.0
2014-Oct-24 07:23N 54°10' E 012°06'0 0.0
2014-Oct-24 06:23N 54°10' E 012°06'0 0.0
2014-Oct-24 05:26N 54°10' E 012°06'0 0.0
2014-Oct-24 04:32N 54°10' E 012°06'0 0.0
2014-Oct-24 03:20N 54°10' E 012°06'0 0.0
2014-Oct-24 02:29N 54°10' E 012°06'0 0.0
2014-Oct-24 01:20N 54°10' E 012°06'0 0.0
2014-Oct-24 00:16N 54°10' E 012°06'0 0.0
2014-Oct-23 21:32N 54°10' E 012°06'0 0.0
2014-Oct-23 20:26N 54°10' E 012°06'0 0.0
2014-Oct-23 19:32N 54°10' E 012°06'0 0.0
2014-Oct-23 18:20N 54°10' E 012°06'0 0.0
2014-Oct-23 17:20N 54°10' E 012°06'0 0.0
2014-Oct-23 15:05N 54°10' E 012°06'0 0.0
2014-Oct-23 14:23N 54°10' E 012°06'0 0.0
2014-Oct-23 12:26N 54°10' E 012°06'0 0.0
2014-Oct-23 11:17N 54°10' E 012°06'0 0.0
2014-Oct-23 10:32N 54°10' E 012°06'0 0.0
2014-Oct-23 09:23N 54°10' E 012°06'0 0.0
2014-Oct-23 08:30N 54°10' E 012°06'0 0.0
2014-Oct-23 04:23N 54°10' E 012°06'0 0.0
2014-Oct-23 03:26N 54°10' E 012°06'0 0.0
2014-Oct-23 02:11N 54°10' E 012°06'0 0.0
2014-Oct-23 00:32N 54°10' E 012°06'0 0.0
2014-Oct-22 23:33N 54°10' E 012°06'0 0.0
2014-Oct-22 22:23N 54°10' E 012°06'0 0.0
2014-Oct-22 21:32N 54°10' E 012°06'0 0.0
2014-Oct-22 20:23N 54°10' E 012°06'0 0.0
2014-Oct-22 18:17N 54°10' E 012°06'0 0.0
2014-Oct-22 17:23N 54°10' E 012°06'0 0.0
2014-Oct-22 16:29N 54°10' E 012°06'0 0.0
2014-Oct-22 15:23N 54°10' E 012°06'0 0.0
2014-Oct-22 14:23N 54°10' E 012°06'0 0.0
2014-Oct-22 13:26N 54°10' E 012°06'0 0.0
2014-Oct-22 12:23N 54°10' E 012°06'0 0.0
2014-Oct-22 11:11N 54°10' E 012°06'0 0.0
2014-Oct-22 10:08N 54°10' E 012°06'0 0.0
2014-Oct-22 08:32N 54°10' E 012°06'0 0.0
2014-Oct-22 07:26N 54°10' E 012°06'0 0.0
2014-Oct-22 06:23N 54°10' E 012°06'0 0.0
2014-Oct-22 05:17N 54°10' E 012°06'0 0.0
2014-Oct-22 04:23N 54°10' E 012°06'0 0.0
2014-Oct-22 03:14N 54°10' E 012°06'0 0.0
2014-Oct-22 01:17N 54°10' E 012°06'0 0.0
2014-Oct-22 00:23N 54°10' E 012°06'0 0.0
2014-Oct-21 23:32N 54°10' E 012°06'0 0.0
2014-Oct-21 22:32N 54°10' E 012°06'0 0.0
2014-Oct-21 21:29N 54°10' E 012°06'  
Track history (hours):
 
Tides and Currents Weather Stations Pressure Air Temp Water Temp Dewpoint Dewpoint Depression Visibility Wind Speed Wind Dir Waves Ship Positions

Sedov (Russia)

Last reported at 2014-Oct-31 19:31 UTC. Time now 2014-Oct-31 20:03 UTC.
Position N 59°56' E 030°17'.

Length 118 m; draft 6.5 m.

Type: Sailing vessel. MMSI: 273510000.

Date/timePositionNaut miles runAvg speedWind from/ knotsBaromVisibWave heightAir tempDewpointWater temp
2014-Oct-31 19:31N 59°56' E 030°17'0 0.0
2014-Oct-31 18:31N 59°56' E 030°17'0 0.0
2014-Oct-31 17:31N 59°56' E 030°17'0 0.0
2014-Oct-31 16:31N 59°56' E 030°17'0 0.0
2014-Oct-31 15:31N 59°56' E 030°17'0 0.0
2014-Oct-31 14:31N 59°56' E 030°17'0 0.0
2014-Oct-31 13:31N 59°56' E 030°17'0 0.0
2014-Oct-31 12:31N 59°56' E 030°17'0 0.0
2014-Oct-31 11:31N 59°56' E 030°17'0 0.0
2014-Oct-31 10:31N 59°56' E 030°17'0 0.0
2014-Oct-31 09:31N 59°56' E 030°17'0 0.0
2014-Oct-31 08:31N 59°56' E 030°17'0 0.3
2014-Oct-31 07:33N 59°56' E 030°16'  
2014-Oct-28 10:33N 59°59' E 026°47'10 9.9
2014-Oct-28 09:33N 59°58' E 026°27'73 8.6
2014-Oct-28 01:10N 59°40' E 024°07'5 7.2
2014-Oct-28 00:32N 59°39' E 023°58'7 7.1
2014-Oct-27 23:33N 59°37' E 023°45'7 7.2
2014-Oct-27 22:33N 59°35' E 023°32'7 6.6
2014-Oct-27 21:29N 59°33' E 023°19'  
2014-Oct-25 13:23N 54°51' E 015°36'10 2.6
2014-Oct-25 09:33N 54°47' E 015°19'3 2.7
2014-Oct-25 08:32N 54°46' E 015°15'3 2.6
2014-Oct-25 07:33N 54°45' E 015°11'5 4.5
2014-Oct-25 06:33N 54°44' E 015°03'10 9.0
2014-Oct-25 05:29N 54°40' E 014°48'22 7.3
2014-Oct-25 02:26N 54°38' E 014°10'6 6.9
2014-Oct-25 01:31N 54°40' E 013°59'54 7.5
2014-Oct-24 18:21N 54°33' E 012°27'8 9.6
2014-Oct-24 17:32N 54°27' E 012°19'10 9.8
2014-Oct-24 16:32N 54°20' E 012°06'9 8.6
2014-Oct-24 15:33N 54°12' E 012°05'2 1.1
2014-Oct-24 14:07N 54°10' E 012°06'0 0.0
2014-Oct-24 13:28N 54°10' E 012°06'0 0.0
2014-Oct-24 12:31N 54°10' E 012°06'0 0.0
2014-Oct-24 10:23N 54°10' E 012°06'0 0.0
2014-Oct-24 08:32N 54°10' E 012°06'0 0.0
2014-Oct-24 07:23N 54°10' E 012°06'0 0.0
2014-Oct-24 06:23N 54°10' E 012°06'0 0.0
2014-Oct-24 05:26N 54°10' E 012°06'0 0.0
2014-Oct-24 04:32N 54°10' E 012°06'0 0.0
2014-Oct-24 03:20N 54°10' E 012°06'0 0.0
2014-Oct-24 02:29N 54°10' E 012°06'0 0.0
2014-Oct-24 01:20N 54°10' E 012°06'0 0.0
2014-Oct-24 00:16N 54°10' E 012°06'0 0.0
2014-Oct-23 21:32N 54°10' E 012°06'0 0.0
2014-Oct-23 20:26N 54°10' E 012°06'0 0.0
2014-Oct-23 19:32N 54°10' E 012°06'0 0.0
2014-Oct-23 18:20N 54°10' E 012°06'0 0.0
2014-Oct-23 17:20N 54°10' E 012°06'0 0.0
2014-Oct-23 15:05N 54°10' E 012°06'0 0.0
2014-Oct-23 14:23N 54°10' E 012°06'0 0.0
2014-Oct-23 12:26N 54°10' E 012°06'0 0.0
2014-Oct-23 11:17N 54°10' E 012°06'0 0.0
2014-Oct-23 10:32N 54°10' E 012°06'0 0.0
2014-Oct-23 09:23N 54°10' E 012°06'0 0.0
2014-Oct-23 08:30N 54°10' E 012°06'0 0.0
2014-Oct-23 04:23N 54°10' E 012°06'0 0.0
2014-Oct-23 03:26N 54°10' E 012°06'0 0.0
2014-Oct-23 02:11N 54°10' E 012°06'0 0.0
2014-Oct-23 00:32N 54°10' E 012°06'0 0.0
2014-Oct-22 23:33N 54°10' E 012°06'0 0.0
2014-Oct-22 22:23N 54°10' E 012°06'0 0.0
2014-Oct-22 21:32N 54°10' E 012°06'0 0.0
2014-Oct-22 20:23N 54°10' E 012°06'0 0.0
2014-Oct-22 18:17N 54°10' E 012°06'0 0.0
2014-Oct-22 17:23N 54°10' E 012°06'0 0.0
2014-Oct-22 16:29N 54°10' E 012°06'0 0.0
2014-Oct-22 15:23N 54°10' E 012°06'0 0.0
2014-Oct-22 14:23N 54°10' E 012°06'0 0.0
2014-Oct-22 13:26N 54°10' E 012°06'0 0.0
2014-Oct-22 12:23N 54°10' E 012°06'0 0.0
2014-Oct-22 11:11N 54°10' E 012°06'0 0.0
2014-Oct-22 10:08N 54°10' E 012°06'0 0.0
2014-Oct-22 08:32N 54°10' E 012°06'0 0.0
2014-Oct-22 07:26N 54°10' E 012°06'0 0.0
2014-Oct-22 06:23N 54°10' E 012°06'0 0.0
2014-Oct-22 05:17N 54°10' E 012°06'0 0.0
2014-Oct-22 04:23N 54°10' E 012°06'0 0.0
2014-Oct-22 03:14N 54°10' E 012°06'0 0.0
2014-Oct-22 01:17N 54°10' E 012°06'0 0.0
2014-Oct-22 00:23N 54°10' E 012°06'0 0.0
2014-Oct-21 23:32N 54°10' E 012°06'0 0.0
2014-Oct-21 22:32N 54°10' E 012°06'0 0.0
2014-Oct-21 21:29N 54°10' E 012°06'  

Dump ship's entire track history